createdAt,value
2019-05-23T00:02:38.476Z,9.70
2019-05-23T00:05:45.678Z,9.80
2019-05-23T00:08:38.921Z,10.00
2019-05-23T00:11:32.682Z,9.80
2019-05-23T00:14:31.280Z,9.60
2019-05-23T00:17:04.900Z,9.90
2019-05-23T00:19:38.677Z,9.60
2019-05-23T00:22:12.746Z,9.50
2019-05-23T00:24:43.371Z,9.80
2019-05-23T00:27:14.512Z,9.40
2019-05-23T00:29:48.259Z,9.30
2019-05-23T00:32:28.680Z,9.30
2019-05-23T00:34:59.697Z,9.30
2019-05-23T00:37:33.046Z,9.50
2019-05-23T00:40:05.065Z,9.30
2019-05-23T00:42:36.060Z,9.30
2019-05-23T00:45:09.869Z,9.30
2019-05-23T00:47:41.745Z,9.20
2019-05-23T00:50:14.075Z,9.50
2019-05-23T00:52:47.158Z,9.30
2019-05-23T00:55:18.226Z,9.10
2019-05-23T00:57:50.674Z,9.20
2019-05-23T01:00:24.800Z,8.90
2019-05-23T01:02:56.841Z,8.90
2019-05-23T01:05:29.084Z,8.90
2019-05-23T01:08:03.040Z,8.80
2019-05-23T01:10:33.836Z,8.80
2019-05-23T01:13:05.496Z,8.90
2019-05-23T01:15:38.079Z,9.40
2019-05-23T01:18:09.796Z,9.20
2019-05-23T01:21:00.139Z,8.80
2019-05-23T01:23:34.012Z,9.10
2019-05-23T01:26:06.254Z,9.20
2019-05-23T01:28:39.496Z,9.10
2019-05-23T01:31:15.720Z,9.00
2019-05-23T01:33:49.864Z,8.90
2019-05-23T01:36:21.199Z,8.90
2019-05-23T01:38:51.762Z,9.10
2019-05-23T01:41:23.953Z,9.10
2019-05-23T01:43:56.692Z,9.20
2019-05-23T01:46:29.820Z,9.00
2019-05-23T01:49:01.233Z,9.20
2019-05-23T01:51:32.910Z,9.20
2019-05-23T01:54:05.381Z,8.90
2019-05-23T01:56:37.224Z,9.40
2019-05-23T01:59:08.531Z,9.20
2019-05-23T02:01:39.672Z,9.00
2019-05-23T02:04:11.012Z,8.90
2019-05-23T02:06:42.827Z,8.80
2019-05-23T02:09:13.795Z,8.50
2019-05-23T02:11:45.455Z,8.80
2019-05-23T02:14:16.885Z,8.50
2019-05-23T02:16:47.289Z,8.50
2019-05-23T02:19:21.330Z,8.60
2019-05-23T02:21:53.302Z,8.80
2019-05-23T02:24:26.906Z,8.60
2019-05-23T02:26:59.136Z,8.50
2019-05-23T02:29:31.168Z,8.30
2019-05-23T02:32:05.847Z,8.50
2019-05-23T02:34:37.390Z,8.40
2019-05-23T02:37:15.422Z,8.40
2019-05-23T02:40:04.749Z,8.50
2019-05-23T02:42:43.719Z,8.50
2019-05-23T02:45:19.195Z,8.50
2019-05-23T02:47:50.055Z,8.50
2019-05-23T02:50:28.690Z,8.50
2019-05-23T02:53:02.398Z,8.50
2019-05-23T02:55:37.363Z,8.50
2019-05-23T02:58:31.440Z,8.70
2019-05-23T03:01:40.787Z,8.70
2019-05-23T03:04:15.448Z,8.50
2019-05-23T03:06:48.203Z,8.80
2019-05-23T03:09:20.642Z,9.00
2019-05-23T03:11:57.460Z,9.00
2019-05-23T03:14:28.146Z,8.80
2019-05-23T03:17:02.367Z,8.90
2019-05-23T03:19:43.745Z,8.80
2019-05-23T03:22:30.944Z,8.80
2019-05-23T03:25:04.543Z,8.80
2019-05-23T03:27:41.360Z,8.90
2019-05-23T03:30:19.909Z,8.90
2019-05-23T03:32:54.813Z,8.70
2019-05-23T03:35:32.667Z,8.80
2019-05-23T03:38:04.144Z,8.80
2019-05-23T03:40:36.321Z,8.80
2019-05-23T03:43:10.345Z,8.90
2019-05-23T03:45:47.019Z,8.80
2019-05-23T03:48:20.859Z,8.70
2019-05-23T03:50:52.633Z,8.90
2019-05-23T03:53:25.432Z,8.90
2019-05-23T03:55:57.630Z,9.10
2019-05-23T03:58:29.805Z,8.90
2019-05-23T04:01:02.891Z,8.70
2019-05-23T04:03:38.969Z,8.80
2019-05-23T04:06:08.458Z,8.50
2019-05-23T04:08:40.607Z,8.80
2019-05-23T04:11:11.670Z,8.80
2019-05-23T04:13:42.446Z,8.90
2019-05-23T04:16:13.372Z,8.80
2019-05-23T04:18:46.667Z,8.90
2019-05-23T04:21:22.684Z,8.80
2019-05-23T04:23:53.703Z,8.90
2019-05-23T04:26:25.080Z,8.90
2019-05-23T04:28:55.747Z,9.00
2019-05-23T04:31:27.775Z,9.00
2019-05-23T04:34:01.122Z,9.20
2019-05-23T04:36:34.061Z,9.20
2019-05-23T04:39:06.681Z,9.10
2019-05-23T04:41:37.087Z,9.10
2019-05-23T04:44:09.097Z,9.30
2019-05-23T04:46:40.028Z,9.50
2019-05-23T04:49:10.462Z,9.20
2019-05-23T04:51:41.619Z,9.50
2019-05-23T04:54:13.953Z,9.50
2019-05-23T04:56:45.894Z,9.70
2019-05-23T04:59:17.959Z,9.70
2019-05-23T05:01:48.626Z,9.70
2019-05-23T05:04:19.946Z,10.10
2019-05-23T05:06:50.493Z,10.30
2019-05-23T05:09:25.674Z,10.30
2019-05-23T05:11:56.441Z,10.30
2019-05-23T05:14:27.738Z,10.60
2019-05-23T05:16:59.109Z,10.70
2019-05-23T05:19:31.337Z,10.50
2019-05-23T05:22:02.364Z,10.70
2019-05-23T05:24:34.079Z,11.00
2019-05-23T05:27:05.962Z,11.00
2019-05-23T05:29:36.523Z,10.90
2019-05-23T05:32:08.511Z,11.00
2019-05-23T05:34:39.297Z,11.10
2019-05-23T05:37:11.667Z,11.10
2019-05-23T05:39:42.157Z,11.20
2019-05-23T05:42:14.578Z,11.10
2019-05-23T05:44:48.426Z,11.30
2019-05-23T05:47:20.353Z,11.40
2019-05-23T05:49:53.536Z,11.40
2019-05-23T05:52:25.873Z,11.70
2019-05-23T05:54:56.661Z,11.50
2019-05-23T05:57:29.494Z,11.70
2019-05-23T06:00:00.257Z,11.80
2019-05-23T06:02:31.024Z,11.80
2019-05-23T06:05:01.342Z,11.70
2019-05-23T06:07:40.857Z,11.60
2019-05-23T06:10:15.635Z,11.90
2019-05-23T06:12:47.106Z,11.80
2019-05-23T06:15:18.009Z,12.10
2019-05-23T06:17:49.632Z,12.50
2019-05-23T06:20:22.161Z,12.50
2019-05-23T06:22:52.956Z,12.20
2019-05-23T06:25:24.349Z,12.30
2019-05-23T06:27:54.862Z,12.20
2019-05-23T06:30:26.201Z,12.20
2019-05-23T06:32:58.927Z,12.30
2019-05-23T06:35:31.625Z,12.60
2019-05-23T06:38:03.136Z,12.50
2019-05-23T06:40:35.962Z,12.20
2019-05-23T06:43:08.989Z,12.20
2019-05-23T06:45:43.541Z,12.50
2019-05-23T06:48:15.818Z,12.60
2019-05-23T06:50:46.271Z,12.50
2019-05-23T06:53:18.829Z,13.00
2019-05-23T06:55:51.618Z,12.70
2019-05-23T06:58:23.514Z,12.90
2019-05-23T07:00:55.078Z,13.00
2019-05-23T07:03:40.501Z,12.90
2019-05-23T07:05:59.613Z,13.00
2019-05-23T07:08:31.826Z,13.20
2019-05-23T07:11:03.345Z,13.40
2019-05-23T07:13:35.415Z,13.20
2019-05-23T07:16:06.436Z,13.40
2019-05-23T07:18:36.853Z,13.70
2019-05-23T07:21:09.344Z,14.00
2019-05-23T07:23:41.460Z,14.00
2019-05-23T07:26:13.123Z,14.30
2019-05-23T07:28:43.675Z,14.00
2019-05-23T07:31:14.849Z,14.40
2019-05-23T07:34:00.461Z,14.40
2019-05-23T07:36:18.483Z,14.20
2019-05-23T07:38:51.360Z,14.00
2019-05-23T07:41:23.224Z,14.10
2019-05-23T07:43:53.586Z,13.90
2019-05-23T07:46:25.692Z,14.00
2019-05-23T07:48:59.614Z,14.00
2019-05-23T07:51:33.324Z,13.80
2019-05-23T07:54:22.377Z,14.30
2019-05-23T07:56:55.515Z,14.20
2019-05-23T07:59:28.068Z,14.20
2019-05-23T08:02:14.164Z,14.20
2019-05-23T08:04:45.926Z,14.50
2019-05-23T08:07:18.898Z,14.10
2019-05-23T08:09:49.536Z,14.20
2019-05-23T08:12:20.009Z,14.20
2019-05-23T08:14:50.993Z,14.10
2019-05-23T08:17:21.952Z,14.30
2019-05-23T08:19:53.875Z,14.50
2019-05-23T08:22:25.876Z,14.60
2019-05-23T08:24:57.771Z,14.50
2019-05-23T08:27:29.194Z,15.00
2019-05-23T08:30:02.589Z,15.00
2019-05-23T08:32:35.204Z,14.80
2019-05-23T08:35:08.160Z,14.50
2019-05-23T08:37:38.688Z,14.30
2019-05-23T08:40:10.424Z,14.60
2019-05-23T08:42:42.591Z,15.10
2019-05-23T08:45:16.286Z,15.30
2019-05-23T08:47:46.745Z,15.10
2019-05-23T08:50:20.662Z,15.20
2019-05-23T08:52:51.310Z,15.30
2019-05-23T08:55:23.009Z,15.40
2019-05-23T08:57:54.629Z,15.40
2019-05-23T09:00:27.378Z,15.00
2019-05-23T09:03:00.088Z,15.30
2019-05-23T09:05:32.482Z,15.30
2019-05-23T09:08:02.830Z,15.40
2019-05-23T09:10:35.115Z,15.40
2019-05-23T09:13:10.681Z,15.30
2019-05-23T09:15:41.428Z,15.10
2019-05-23T09:18:13.700Z,15.20
2019-05-23T09:20:44.610Z,15.00
2019-05-23T09:23:16.665Z,15.10
2019-05-23T09:25:48.859Z,15.30
2019-05-23T09:28:19.707Z,15.10
2019-05-23T09:30:51.871Z,15.30
2019-05-23T09:33:22.248Z,15.20
2019-05-23T09:35:53.017Z,15.50
2019-05-23T09:38:25.318Z,15.40
2019-05-23T09:40:58.122Z,15.50
2019-05-23T09:43:28.565Z,15.90
2019-05-23T09:46:00.009Z,15.80
2019-05-23T09:48:30.600Z,16.00
2019-05-23T09:51:01.275Z,15.90
2019-05-23T09:53:33.373Z,16.00
2019-05-23T09:56:04.030Z,16.40
2019-05-23T09:58:34.810Z,16.10
2019-05-23T10:01:05.871Z,16.20
2019-05-23T10:03:36.730Z,16.70
2019-05-23T10:06:07.501Z,16.40
2019-05-23T10:08:40.186Z,16.20
2019-05-23T10:11:10.761Z,16.60
2019-05-23T10:13:42.119Z,16.50
2019-05-23T10:16:14.073Z,16.40
2019-05-23T10:18:46.987Z,16.40
2019-05-23T10:21:21.220Z,16.50
2019-05-23T10:23:54.014Z,16.70
2019-05-23T10:26:25.222Z,16.50
2019-05-23T10:28:56.894Z,16.40
2019-05-23T10:31:28.363Z,16.40
2019-05-23T10:34:00.118Z,16.10
2019-05-23T10:36:30.940Z,16.30
2019-05-23T10:39:02.662Z,16.50
2019-05-23T10:41:34.077Z,16.50
2019-05-23T10:44:04.834Z,16.90
2019-05-23T10:46:36.115Z,16.70
2019-05-23T10:49:06.484Z,16.70
2019-05-23T10:51:37.270Z,16.40
2019-05-23T10:54:07.810Z,16.40
2019-05-23T10:56:39.551Z,16.40
2019-05-23T10:59:09.919Z,16.20
2019-05-23T11:01:41.499Z,16.60
2019-05-23T11:04:16.585Z,16.90
2019-05-23T11:06:47.302Z,17.10
2019-05-23T11:09:36.223Z,17.10
2019-05-23T11:11:52.252Z,16.90
2019-05-23T11:14:24.948Z,17.10
2019-05-23T11:16:55.582Z,16.90
2019-05-23T11:19:26.036Z,17.40
2019-05-23T11:21:57.899Z,17.40
2019-05-23T11:24:29.622Z,17.70
2019-05-23T11:27:00.482Z,17.50
2019-05-23T11:29:31.632Z,17.30
2019-05-23T11:32:02.926Z,17.20
2019-05-23T11:34:35.411Z,17.20
2019-05-23T11:37:07.291Z,17.10
2019-05-23T11:39:42.150Z,17.10
2019-05-23T11:42:11.021Z,17.20
2019-05-23T11:44:43.513Z,17.50
2019-05-23T11:47:13.886Z,17.40
2019-05-23T11:49:45.304Z,17.30
2019-05-23T11:52:16.620Z,17.40
2019-05-23T11:54:47.381Z,17.70
2019-05-23T11:57:17.914Z,17.30
2019-05-23T11:59:49.394Z,17.80
2019-05-23T12:02:48.394Z,17.70
2019-05-23T12:05:24.293Z,17.50
2019-05-23T12:07:55.378Z,17.70
2019-05-23T12:10:26.102Z,17.60
2019-05-23T12:12:56.490Z,17.70
2019-05-23T12:15:28.770Z,17.70
2019-05-23T12:18:00.968Z,17.50
2019-05-23T12:20:31.368Z,18.00
2019-05-23T12:23:01.833Z,18.50
2019-05-23T12:25:33.197Z,18.60
2019-05-23T12:28:07.411Z,18.80
2019-05-23T12:30:38.350Z,18.50
2019-05-23T12:33:09.899Z,18.40
2019-05-23T12:35:40.659Z,18.10
2019-05-23T12:38:11.546Z,18.30
2019-05-23T12:40:42.005Z,18.50
2019-05-23T12:43:14.021Z,18.80
2019-05-23T12:45:45.724Z,18.50
2019-05-23T12:48:35.179Z,18.70
2019-05-23T12:51:07.545Z,18.60
2019-05-23T12:53:38.389Z,18.60
2019-05-23T12:56:08.848Z,18.90
2019-05-23T12:58:39.718Z,19.00
2019-05-23T13:01:13.470Z,19.10
2019-05-23T13:03:45.950Z,19.00
2019-05-23T13:06:16.755Z,19.30
2019-05-23T13:08:48.615Z,18.80
2019-05-23T13:11:20.454Z,19.00
2019-05-23T13:13:51.475Z,19.10
2019-05-23T13:16:24.069Z,19.10
2019-05-23T13:18:55.056Z,19.50
2019-05-23T13:21:26.893Z,19.10
2019-05-23T13:23:58.641Z,18.90
2019-05-23T13:26:30.155Z,18.80
2019-05-23T13:29:00.663Z,18.80
2019-05-23T13:31:31.584Z,19.10
2019-05-23T13:34:01.973Z,19.00
2019-05-23T13:36:33.149Z,19.40
2019-05-23T13:39:04.687Z,19.30
2019-05-23T13:41:37.418Z,19.60
2019-05-23T13:44:08.298Z,19.00
2019-05-23T13:46:38.961Z,19.50
2019-05-23T13:49:10.582Z,19.50
2019-05-23T13:51:42.671Z,19.20
2019-05-23T13:54:14.318Z,19.00
2019-05-23T13:56:47.731Z,19.50
2019-05-23T13:59:17.025Z,19.60
2019-05-23T14:01:47.387Z,19.30
2019-05-23T14:04:18.423Z,19.60
2019-05-23T14:06:48.798Z,19.60
2019-05-23T14:09:20.394Z,19.90
2019-05-23T14:12:19.607Z,19.40
2019-05-23T14:14:23.811Z,19.50
2019-05-23T14:17:12.550Z,19.40
2019-05-23T14:19:43.484Z,19.40
2019-05-23T14:22:14.104Z,19.60
2019-05-23T14:24:45.101Z,19.60
2019-05-23T14:27:23.250Z,19.40
2019-05-23T14:29:54.009Z,19.90
2019-05-23T14:32:33.766Z,19.90
2019-05-23T14:35:05.223Z,20.00
2019-05-23T14:37:48.933Z,19.90
2019-05-23T14:40:21.688Z,19.70
2019-05-23T14:43:03.403Z,19.50
2019-05-23T14:46:08.135Z,19.50
2019-05-23T14:48:49.440Z,19.70
2019-05-23T14:51:43.312Z,19.90
2019-05-23T14:54:32.645Z,19.70
2019-05-23T14:57:05.058Z,19.60
2019-05-23T14:59:37.195Z,19.80
2019-05-23T15:02:13.626Z,19.80
2019-05-23T15:08:21.379Z,20.00
2019-05-23T15:10:59.988Z,19.80
2019-05-23T15:13:33.506Z,19.80
2019-05-23T15:16:04.703Z,19.50
2019-05-23T15:18:36.285Z,19.40
2019-05-23T15:21:06.973Z,19.90
2019-05-23T15:23:37.463Z,19.60
2019-05-23T15:26:22.220Z,19.80
2019-05-23T15:28:42.248Z,20.10
2019-05-23T15:31:13.305Z,20.20
2019-05-23T15:33:45.620Z,20.40
2019-05-23T15:36:17.174Z,20.10
2019-05-23T15:38:49.687Z,19.80
2019-05-23T15:41:21.430Z,20.10
2019-05-23T15:43:52.355Z,19.80
2019-05-23T15:46:23.123Z,20.10
2019-05-23T15:48:55.232Z,20.30
2019-05-23T15:51:31.450Z,20.40
2019-05-23T15:54:20.926Z,20.40
2019-05-23T15:57:29.706Z,20.10
2019-05-23T16:00:19.140Z,19.80
2019-05-23T16:03:02.924Z,20.00
2019-05-23T16:05:35.710Z,19.90
2019-05-23T16:08:06.625Z,19.70
2019-05-23T16:10:38.090Z,19.60
2019-05-23T16:13:08.964Z,20.20
2019-05-23T16:15:39.421Z,19.70
2019-05-23T16:18:10.404Z,19.80
2019-05-23T16:20:40.782Z,19.60
2019-05-23T16:23:14.830Z,19.70
2019-05-23T16:25:47.033Z,19.60
2019-05-23T16:28:20.621Z,19.60
2019-05-23T16:30:54.853Z,19.70
2019-05-23T16:33:25.359Z,19.70
2019-05-23T16:35:55.781Z,19.60
2019-05-23T16:38:27.247Z,19.50
2019-05-23T16:40:58.431Z,19.60
2019-05-23T16:43:28.829Z,19.70
2019-05-23T16:45:59.537Z,19.90
2019-05-23T16:48:29.963Z,19.50
2019-05-23T16:51:01.498Z,19.30
2019-05-23T16:53:35.922Z,19.30
2019-05-23T16:56:12.906Z,19.40
2019-05-23T16:58:53.751Z,19.30
2019-05-23T17:01:54.903Z,19.00
2019-05-23T17:04:59.463Z,19.00
2019-05-23T17:07:57.194Z,19.10
2019-05-23T17:10:42.454Z,19.00
2019-05-23T17:13:27.955Z,18.80
2019-05-23T17:16:13.269Z,19.00
2019-05-23T17:18:51.652Z,18.70
2019-05-23T17:21:39.856Z,18.90
2019-05-23T17:24:29.880Z,18.50
2019-05-23T17:27:23.962Z,18.90
2019-05-23T17:30:00.917Z,18.50
2019-05-23T17:32:33.801Z,18.30
2019-05-23T17:35:06.286Z,18.40
2019-05-23T17:37:38.060Z,18.40
2019-05-23T17:40:23.762Z,18.10
2019-05-23T17:42:44.198Z,18.00
2019-05-23T17:45:14.996Z,17.90
2019-05-23T17:47:45.527Z,17.70
2019-05-23T17:50:17.470Z,18.10
2019-05-23T17:52:49.141Z,18.00
2019-05-23T17:55:20.490Z,18.00
2019-05-23T17:57:50.934Z,17.80
2019-05-23T18:00:26.036Z,17.50
2019-05-23T18:02:56.688Z,17.70
2019-05-23T18:05:27.809Z,17.50
2019-05-23T18:07:59.413Z,17.50
2019-05-23T18:10:43.982Z,17.20
2019-05-23T18:13:07.694Z,17.10
2019-05-23T18:15:38.638Z,17.40
2019-05-23T18:18:10.177Z,17.20
2019-05-23T18:20:41.409Z,16.90
2019-05-23T18:23:13.807Z,17.20
2019-05-23T18:25:44.641Z,17.10
2019-05-23T18:28:15.424Z,17.00
2019-05-23T18:30:53.625Z,16.70
2019-05-23T18:33:25.248Z,16.70
2019-05-23T18:35:56.140Z,16.80
2019-05-23T18:38:27.366Z,16.80
2019-05-23T18:41:03.116Z,17.00
2019-05-23T18:43:30.117Z,16.50
2019-05-23T18:46:04.037Z,16.60
2019-05-23T18:48:35.476Z,16.70
2019-05-23T18:51:06.712Z,16.80
2019-05-23T18:53:37.615Z,16.70
2019-05-23T18:56:08.345Z,16.30
2019-05-23T18:58:40.671Z,16.40
2019-05-23T19:01:19.962Z,16.50
2019-05-23T19:03:52.708Z,16.50
2019-05-23T19:06:25.591Z,16.20
2019-05-23T19:08:58.994Z,16.30
2019-05-23T19:11:32.987Z,16.20
2019-05-23T19:14:04.937Z,16.10
2019-05-23T19:16:36.316Z,16.00
2019-05-23T19:19:07.864Z,16.30
2019-05-23T19:21:39.023Z,16.10
2019-05-23T19:24:12.848Z,15.90
2019-05-23T19:26:43.624Z,16.20
2019-05-23T19:29:14.063Z,15.60
2019-05-23T19:31:44.689Z,15.80
2019-05-23T19:34:19.645Z,15.50
2019-05-23T19:36:52.350Z,15.40
2019-05-23T19:42:19.771Z,15.30
2019-05-23T19:44:50.220Z,15.50
2019-05-23T19:47:21.039Z,15.40
2019-05-23T19:49:51.757Z,15.30
2019-05-23T19:52:22.536Z,15.10
2019-05-23T19:54:53.811Z,15.30
2019-05-23T19:57:25.380Z,15.00
2019-05-23T19:59:55.786Z,15.20
2019-05-23T20:02:48.517Z,15.00
2019-05-23T20:05:24.834Z,15.20
2019-05-23T20:07:55.633Z,15.00
2019-05-23T20:10:27.195Z,15.10
2019-05-23T20:12:58.501Z,14.60
2019-05-23T20:15:31.131Z,15.00
2019-05-23T20:18:01.916Z,14.50
2019-05-23T20:20:34.714Z,14.20
2019-05-23T20:23:06.749Z,14.20
2019-05-23T20:25:38.936Z,14.20
2019-05-23T20:28:09.737Z,14.50
2019-05-23T20:30:59.720Z,14.30
2019-05-23T20:33:30.604Z,13.90
2019-05-23T20:36:03.302Z,14.10
2019-05-23T20:38:37.030Z,14.00
2019-05-23T20:41:07.774Z,14.10
2019-05-23T20:43:38.242Z,14.10
2019-05-23T20:46:09.514Z,14.10
2019-05-23T20:48:40.115Z,14.20
2019-05-23T20:51:11.111Z,14.10
2019-05-23T20:53:41.596Z,14.10
2019-05-23T20:56:12.335Z,13.80
2019-05-23T20:58:42.902Z,14.00
2019-05-23T21:01:35.108Z,13.60
2019-05-23T21:04:07.289Z,13.90
2019-05-23T21:06:37.914Z,13.60
2019-05-23T21:09:09.082Z,13.90
2019-05-23T21:11:39.805Z,13.50
2019-05-23T21:14:10.296Z,13.50
2019-05-23T21:16:40.899Z,13.40
2019-05-23T21:19:13.006Z,13.30
2019-05-23T21:21:43.486Z,13.20
2019-05-23T21:24:14.422Z,13.50
2019-05-23T21:26:45.499Z,13.50
2019-05-23T21:29:16.235Z,13.50
2019-05-23T21:31:46.891Z,13.50
2019-05-23T21:34:21.916Z,13.20
2019-05-23T21:36:52.875Z,13.30
2019-05-23T21:39:23.346Z,13.20
2019-05-23T21:41:53.825Z,13.30
2019-05-23T21:44:24.568Z,13.60
2019-05-23T21:46:55.482Z,13.10
2019-05-23T21:49:26.366Z,13.30
2019-05-23T21:51:56.817Z,13.20
2019-05-23T21:54:27.315Z,13.00
2019-05-23T21:56:57.707Z,12.90
2019-05-23T21:59:29.562Z,12.90
2019-05-23T22:02:18.603Z,12.80
2019-05-23T22:05:14.041Z,12.90
2019-05-23T22:07:47.344Z,12.70
